createdAt,value
2018-11-14T00:02:11.768Z,96.16
2018-11-14T00:04:40.238Z,97.35
2018-11-14T00:07:08.674Z,97.93
2018-11-14T00:09:37.176Z,98.80
2018-11-14T00:12:06.107Z,99.21
2018-11-14T00:14:34.547Z,99.97
2018-11-14T00:17:03.300Z,99.79
2018-11-14T00:19:31.782Z,100.00
2018-11-14T00:22:00.226Z,100.00
2018-11-14T00:24:28.789Z,99.99
2018-11-14T00:26:57.224Z,97.65
2018-11-14T00:29:25.688Z,97.36
2018-11-14T00:31:54.175Z,99.33
2018-11-14T00:34:22.637Z,99.61
2018-11-14T00:36:51.107Z,99.71
2018-11-14T00:39:19.651Z,98.71
2018-11-14T00:41:48.119Z,97.35
2018-11-14T00:44:16.580Z,96.52
2018-11-14T00:46:45.044Z,97.13
2018-11-14T00:49:13.486Z,96.11
2018-11-14T00:51:41.959Z,98.64
2018-11-14T00:54:10.419Z,100.00
2018-11-14T00:56:38.870Z,97.35
2018-11-14T00:59:07.330Z,98.53
2018-11-14T01:01:36.092Z,96.93
2018-11-14T01:04:04.739Z,97.04
2018-11-14T01:06:33.173Z,97.05
2018-11-14T01:09:01.649Z,96.88
2018-11-14T01:11:30.264Z,98.24
2018-11-14T01:13:58.727Z,95.95
2018-11-14T01:16:27.177Z,97.22
2018-11-14T01:18:55.943Z,98.65
2018-11-14T01:21:24.614Z,94.65
2018-11-14T01:23:53.244Z,91.72
2018-11-14T01:26:21.711Z,93.38
2018-11-14T01:28:50.174Z,93.37
2018-11-14T01:31:18.818Z,93.23
2018-11-14T01:33:47.532Z,93.28
2018-11-14T01:36:16.042Z,93.97
2018-11-14T01:38:44.539Z,94.72
2018-11-14T01:41:12.987Z,96.97
2018-11-14T01:43:41.471Z,92.10
2018-11-14T01:46:10.280Z,95.92
2018-11-14T01:48:38.779Z,99.19
2018-11-14T01:51:07.544Z,97.27
2018-11-14T01:53:36.003Z,95.61
2018-11-14T01:56:04.748Z,94.60
2018-11-14T01:58:33.351Z,94.79
2018-11-14T02:01:01.812Z,94.81
2018-11-14T02:03:30.374Z,95.87
2018-11-14T02:05:59.168Z,96.64
2018-11-14T02:08:27.703Z,97.37
2018-11-14T02:10:56.175Z,97.59
2018-11-14T02:13:24.655Z,96.38
2018-11-14T02:15:53.180Z,97.92
2018-11-14T02:18:21.673Z,97.70
2018-11-14T02:20:50.166Z,96.83
2018-11-14T02:23:18.623Z,97.46
2018-11-14T02:25:47.070Z,93.39
2018-11-14T02:28:15.578Z,94.14
2018-11-14T02:30:44.085Z,94.95
2018-11-14T02:33:12.609Z,93.38
2018-11-14T02:35:41.109Z,93.63
2018-11-14T02:38:09.587Z,95.07
2018-11-14T02:40:38.095Z,92.94
2018-11-14T02:43:06.919Z,92.78
2018-11-14T02:45:35.399Z,95.01
2018-11-14T02:48:03.931Z,95.18
2018-11-14T02:50:32.519Z,96.23
2018-11-14T02:53:01.232Z,94.98
2018-11-14T02:55:29.688Z,96.56
2018-11-14T02:57:58.152Z,93.61
2018-11-14T03:00:26.663Z,92.23
2018-11-14T03:02:55.424Z,93.52
2018-11-14T03:05:23.928Z,93.72
2018-11-14T03:07:52.420Z,96.72
2018-11-14T03:10:21.953Z,98.33
2018-11-14T03:12:50.479Z,95.12
2018-11-14T03:15:22.724Z,96.70
2018-11-14T03:17:51.268Z,92.54
2018-11-14T03:20:21.153Z,96.56
2018-11-14T03:22:49.679Z,96.72
2018-11-14T03:25:18.191Z,95.96
2018-11-14T03:27:46.663Z,94.97
2018-11-14T03:30:16.500Z,97.02
2018-11-14T03:32:45.483Z,96.98
2018-11-14T03:35:14.596Z,98.59
2018-11-14T03:37:43.078Z,98.93
2018-11-14T03:40:14.334Z,98.51
2018-11-14T03:42:42.872Z,95.19
2018-11-14T03:45:12.735Z,95.79
2018-11-14T03:47:41.923Z,96.59
2018-11-14T03:50:11.032Z,96.44
2018-11-14T03:52:40.581Z,94.49
2018-11-14T03:55:09.068Z,97.08
2018-11-14T03:57:37.599Z,93.80
2018-11-14T04:00:09.105Z,96.50
2018-11-14T04:02:37.632Z,100.00
2018-11-14T04:05:06.674Z,100.00
2018-11-14T04:07:35.146Z,99.16
2018-11-14T04:10:03.658Z,98.72
2018-11-14T04:12:32.121Z,97.53
2018-11-14T04:15:00.579Z,96.09
2018-11-14T04:17:29.377Z,100.00
2018-11-14T04:19:58.446Z,95.93
2018-11-14T04:22:26.953Z,100.00
2018-11-14T04:24:55.448Z,94.40
2018-11-14T04:27:23.935Z,100.00
2018-11-14T04:29:52.560Z,100.00
2018-11-14T04:32:21.020Z,97.51
2018-11-14T04:34:49.548Z,98.53
2018-11-14T04:37:18.071Z,99.44
2018-11-14T04:39:47.055Z,100.00
2018-11-14T04:42:46.193Z,100.00
2018-11-14T04:45:18.307Z,100.00
2018-11-14T04:47:46.926Z,100.00
2018-11-14T04:50:17.719Z,100.00
2018-11-14T04:52:47.292Z,100.00
2018-11-14T04:55:17.163Z,100.00
2018-11-14T04:57:45.954Z,100.00
2018-11-14T05:00:15.496Z,100.00
2018-11-14T05:02:44.682Z,100.00
2018-11-14T05:05:15.755Z,100.00
2018-11-14T05:07:44.250Z,100.00
2018-11-14T05:10:17.091Z,99.91
2018-11-14T05:12:45.890Z,100.00
2018-11-14T05:15:15.809Z,100.00
2018-11-14T05:17:45.019Z,100.00
2018-11-14T05:20:14.608Z,100.00
2018-11-14T05:22:43.614Z,100.00
2018-11-14T05:25:12.162Z,100.00
2018-11-14T05:27:40.987Z,100.00
2018-11-14T05:30:11.624Z,100.00
2018-11-14T05:32:40.124Z,100.00
2018-11-14T05:35:10.092Z,100.00
2018-11-14T05:37:39.112Z,100.00
2018-11-14T05:40:10.782Z,100.00
2018-11-14T05:42:39.878Z,100.00
2018-11-14T05:45:10.745Z,100.00
2018-11-14T05:47:39.408Z,100.00
2018-11-14T05:50:12.090Z,100.00
2018-11-14T05:52:40.887Z,100.00
2018-11-14T05:55:10.382Z,100.00
2018-11-14T05:57:39.247Z,100.00
2018-11-14T06:00:12.884Z,100.00
2018-11-14T06:02:41.353Z,100.00
2018-11-14T06:05:10.363Z,100.00
2018-11-14T06:07:39.470Z,100.00
2018-11-14T06:10:09.860Z,100.00
2018-11-14T06:12:38.374Z,100.00
2018-11-14T06:15:10.189Z,100.00
2018-11-14T06:17:38.710Z,100.00
2018-11-14T06:20:08.807Z,100.00
2018-11-14T06:22:37.313Z,100.00
2018-11-14T06:25:17.356Z,100.00
2018-11-14T06:27:45.844Z,100.00
2018-11-14T06:30:14.334Z,100.00
2018-11-14T06:32:42.872Z,100.00
2018-11-14T06:35:11.384Z,100.00
2018-11-14T06:37:39.908Z,100.00
2018-11-14T06:40:10.459Z,98.01
2018-11-14T06:42:39.739Z,99.74
2018-11-14T06:45:11.193Z,100.00
2018-11-14T06:47:40.194Z,99.01
2018-11-14T06:50:09.867Z,97.98
2018-11-14T06:52:38.782Z,96.29
2018-11-14T06:55:09.239Z,98.04
2018-11-14T06:57:38.062Z,95.82
2018-11-14T07:00:10.335Z,96.04
2018-11-14T07:02:38.847Z,94.47
2018-11-14T07:05:10.194Z,98.25
2018-11-14T07:07:38.704Z,98.08
2018-11-14T07:10:09.074Z,94.87
2018-11-14T07:12:37.604Z,96.46
2018-11-14T07:15:09.101Z,95.98
2018-11-14T07:17:37.759Z,98.21
2018-11-14T07:20:09.390Z,100.00
2018-11-14T07:22:37.829Z,98.08
2018-11-14T07:25:06.767Z,98.12
2018-11-14T07:27:35.225Z,99.25
2018-11-14T07:30:04.190Z,100.00
2018-11-14T07:32:33.341Z,100.00
2018-11-14T07:35:01.805Z,100.00
2018-11-14T07:37:30.334Z,96.31
2018-11-14T07:39:58.871Z,98.44
2018-11-14T07:42:27.581Z,100.00
2018-11-14T07:44:56.112Z,97.62
2018-11-14T07:47:24.617Z,99.95
2018-11-14T07:49:53.484Z,99.80
2018-11-14T07:52:21.945Z,100.00
2018-11-14T07:54:50.463Z,98.33
2018-11-14T07:57:18.928Z,95.86
2018-11-14T07:59:47.517Z,100.00
2018-11-14T08:02:16.261Z,100.00
2018-11-14T08:04:44.719Z,100.00
2018-11-14T08:07:13.206Z,97.91
2018-11-14T08:09:41.719Z,100.00
2018-11-14T08:12:10.224Z,100.00
2018-11-14T08:14:38.739Z,100.00
2018-11-14T08:17:07.224Z,100.00
2018-11-14T08:19:36.052Z,100.00
2018-11-14T08:22:04.874Z,98.00
2018-11-14T08:24:33.368Z,98.03
2018-11-14T08:27:01.892Z,100.00
2018-11-14T08:29:30.593Z,100.00
2018-11-14T08:31:59.100Z,96.88
2018-11-14T08:34:27.573Z,97.08
2018-11-14T08:36:56.112Z,98.12
2018-11-14T08:39:24.865Z,94.90
2018-11-14T08:41:53.285Z,97.20
2018-11-14T08:44:21.851Z,95.52
2018-11-14T08:46:50.326Z,93.61
2018-11-14T08:49:18.840Z,91.53
2018-11-14T08:51:47.296Z,93.24
2018-11-14T08:54:16.039Z,93.61
2018-11-14T08:56:44.547Z,94.29
2018-11-14T08:59:13.255Z,94.92
2018-11-14T09:01:41.748Z,93.61
2018-11-14T09:04:10.286Z,92.57
2018-11-14T09:06:38.759Z,92.17
2018-11-14T09:09:09.314Z,92.15
2018-11-14T09:11:37.761Z,90.48
2018-11-14T09:14:07.062Z,93.59
2018-11-14T09:16:35.948Z,94.65
2018-11-14T09:19:04.720Z,92.94
2018-11-14T09:21:33.236Z,91.95
2018-11-14T09:24:01.837Z,90.50
2018-11-14T09:26:30.378Z,90.01
2018-11-14T09:28:58.884Z,89.49
2018-11-14T09:31:27.367Z,90.81
2018-11-14T09:33:55.840Z,87.57
2018-11-14T09:36:24.512Z,86.89
2018-11-14T09:38:52.948Z,86.73
2018-11-14T09:41:21.488Z,84.99
2018-11-14T09:43:50.015Z,88.92
2018-11-14T09:46:18.915Z,91.85
2018-11-14T09:48:47.408Z,88.16
2018-11-14T09:51:16.100Z,87.09
2018-11-14T09:53:44.610Z,84.30
2018-11-14T09:56:13.197Z,84.44
2018-11-14T09:58:41.692Z,81.88
2018-11-14T10:01:10.240Z,83.29
2018-11-14T10:03:38.758Z,82.28
2018-11-14T10:06:07.292Z,81.17
2018-11-14T10:08:36.043Z,81.67
2018-11-14T10:11:04.512Z,82.80
2018-11-14T10:13:33.128Z,83.41
2018-11-14T10:16:01.622Z,82.42
2018-11-14T10:18:30.184Z,84.55
2018-11-14T10:20:58.669Z,86.20
2018-11-14T10:23:27.371Z,85.62
2018-11-14T10:25:56.071Z,85.81
2018-11-14T10:28:24.530Z,82.88
2018-11-14T10:30:53.032Z,83.01
2018-11-14T10:33:21.489Z,82.96
2018-11-14T10:35:49.972Z,81.62
2018-11-14T10:38:18.437Z,81.33
2018-11-14T10:40:47.140Z,78.15
2018-11-14T10:43:15.644Z,75.19
2018-11-14T10:45:44.104Z,72.19
2018-11-14T10:48:12.782Z,66.69
2018-11-14T10:50:41.374Z,65.48
2018-11-14T10:53:09.860Z,65.00
2018-11-14T10:55:38.318Z,62.08
2018-11-14T10:58:06.860Z,60.49
2018-11-14T11:00:40.534Z,57.46
2018-11-14T11:03:17.100Z,57.36
2018-11-14T11:05:51.023Z,57.28
2018-11-14T11:08:24.736Z,55.58
2018-11-14T11:10:58.504Z,53.09
2018-11-14T11:13:32.351Z,51.65
2018-11-14T11:16:06.081Z,51.56
2018-11-14T11:18:35.215Z,55.37
2018-11-14T11:21:03.704Z,49.06
2018-11-14T11:23:32.281Z,47.37
2018-11-14T11:26:00.727Z,49.10
2018-11-14T11:28:29.354Z,48.98
2018-11-14T11:30:57.885Z,48.25
2018-11-14T11:33:26.350Z,49.40
2018-11-14T11:35:54.858Z,47.33
2018-11-14T11:38:23.460Z,51.92
2018-11-14T11:40:51.908Z,46.04
2018-11-14T11:43:20.594Z,45.32
2018-11-14T11:45:49.086Z,46.52
2018-11-14T11:48:17.599Z,47.46
2018-11-14T11:50:46.287Z,44.01
2018-11-14T11:53:14.783Z,43.67
2018-11-14T11:55:43.839Z,43.14
2018-11-14T11:58:12.324Z,46.26
2018-11-14T12:00:41.291Z,45.77
2018-11-14T12:03:09.667Z,41.54
2018-11-14T12:05:38.148Z,47.11
2018-11-14T12:08:06.667Z,44.73
2018-11-14T12:10:35.168Z,47.49
2018-11-14T12:13:03.704Z,42.75
2018-11-14T12:15:32.170Z,45.64
2018-11-14T12:18:01.229Z,47.73
2018-11-14T12:20:29.696Z,47.61
2018-11-14T12:22:58.206Z,49.10
2018-11-14T12:25:26.684Z,42.83
2018-11-14T12:27:55.235Z,41.55
2018-11-14T12:30:24.063Z,42.53
2018-11-14T12:32:52.765Z,42.56
2018-11-14T12:35:21.340Z,42.18
2018-11-14T12:37:49.725Z,39.50
2018-11-14T12:40:18.586Z,40.16
2018-11-14T12:42:47.091Z,46.89
2018-11-14T12:45:16.535Z,41.07
2018-11-14T12:47:45.061Z,42.84
2018-11-14T12:50:14.527Z,43.19
2018-11-14T12:52:43.706Z,41.49
2018-11-14T12:55:16.605Z,41.32
2018-11-14T12:57:45.327Z,44.29
2018-11-14T13:00:16.347Z,41.76
2018-11-14T13:02:45.156Z,42.77
2018-11-14T13:05:14.636Z,42.11
2018-11-14T13:07:43.951Z,42.38
2018-11-14T13:10:13.749Z,44.01
2018-11-14T13:12:43.796Z,41.34
2018-11-14T13:15:13.708Z,43.50
2018-11-14T13:17:43.189Z,45.02
2018-11-14T13:20:14.298Z,44.43
2018-11-14T13:22:43.143Z,42.37
2018-11-14T13:25:12.664Z,39.78
2018-11-14T13:27:42.344Z,38.64
2018-11-14T13:30:14.882Z,39.14
2018-11-14T13:32:44.048Z,40.02
2018-11-14T13:35:14.041Z,43.36
2018-11-14T13:37:43.575Z,41.90
2018-11-14T13:40:12.476Z,45.22
2018-11-14T13:42:41.448Z,44.73
2018-11-14T13:45:11.520Z,43.05
2018-11-14T13:47:40.495Z,44.00
2018-11-14T13:50:12.156Z,45.17
2018-11-14T13:52:40.950Z,42.22
2018-11-14T13:55:11.760Z,42.62
2018-11-14T13:57:40.995Z,44.94
2018-11-14T14:00:11.115Z,48.95
2018-11-14T14:02:39.596Z,45.17
2018-11-14T14:05:10.420Z,43.43
2018-11-14T14:07:39.047Z,42.44
2018-11-14T14:10:08.737Z,42.83
2018-11-14T14:12:37.536Z,43.15
2018-11-14T14:15:08.657Z,42.95
2018-11-14T14:17:37.148Z,44.03
2018-11-14T14:20:07.241Z,44.77
2018-11-14T14:22:35.667Z,44.66
2018-11-14T14:25:04.439Z,44.84
2018-11-14T14:27:32.925Z,47.53
2018-11-14T14:30:01.446Z,49.25
2018-11-14T14:32:29.934Z,49.72
2018-11-14T14:34:58.439Z,51.40
2018-11-14T14:37:26.882Z,49.22
2018-11-14T14:39:55.396Z,54.02
2018-11-14T14:42:23.891Z,53.94
2018-11-14T14:44:52.903Z,55.26
2018-11-14T14:47:21.685Z,57.12
2018-11-14T14:49:50.677Z,57.71
2018-11-14T14:52:19.324Z,57.37
2018-11-14T14:54:47.835Z,58.07
2018-11-14T14:57:16.453Z,57.84
2018-11-14T14:59:44.948Z,62.03
2018-11-14T15:02:13.541Z,63.38
2018-11-14T15:04:42.997Z,65.02
2018-11-14T15:07:11.500Z,65.06
2018-11-14T15:09:40.020Z,65.33
2018-11-14T15:12:08.628Z,67.01
2018-11-14T15:14:37.104Z,70.50
2018-11-14T15:17:05.892Z,73.63
2018-11-14T15:19:34.362Z,73.19
2018-11-14T15:22:02.863Z,71.68
2018-11-14T15:24:31.355Z,72.68
2018-11-14T15:26:59.890Z,75.82
2018-11-14T15:29:28.350Z,73.99
2018-11-14T15:31:56.833Z,75.76
2018-11-14T15:34:25.305Z,75.47
2018-11-14T15:36:53.775Z,75.33
2018-11-14T15:39:22.235Z,77.04
2018-11-14T15:41:50.754Z,76.92
2018-11-14T15:44:19.274Z,76.87
2018-11-14T15:46:47.749Z,78.36
2018-11-14T15:49:16.252Z,79.46
2018-11-14T15:51:44.903Z,80.76
2018-11-14T15:54:13.312Z,80.78
2018-11-14T15:56:41.796Z,79.78
2018-11-14T15:59:10.283Z,81.47
2018-11-14T16:01:38.772Z,84.47
2018-11-14T16:04:07.379Z,84.41
2018-11-14T16:06:35.976Z,85.57
2018-11-14T16:09:06.567Z,83.25
2018-11-14T16:11:35.076Z,87.06
2018-11-14T16:14:04.563Z,85.82
2018-11-14T16:16:33.134Z,85.72
2018-11-14T16:19:01.922Z,85.88
2018-11-14T16:21:30.380Z,90.40
2018-11-14T16:23:58.847Z,88.82
2018-11-14T16:26:27.557Z,90.24
2018-11-14T16:28:56.020Z,87.82
2018-11-14T16:31:24.806Z,90.36
2018-11-14T16:33:53.296Z,91.36
2018-11-14T16:36:21.852Z,89.49
2018-11-14T16:38:50.514Z,90.03
2018-11-14T16:41:18.974Z,91.20
2018-11-14T16:43:47.516Z,91.87
2018-11-14T16:46:16.063Z,90.41
2018-11-14T16:48:44.882Z,90.27
2018-11-14T16:51:13.524Z,93.03
2018-11-14T16:53:42.068Z,92.54
2018-11-14T16:56:10.611Z,93.95
2018-11-14T16:58:39.448Z,92.71
2018-11-14T17:01:07.883Z,94.95
2018-11-14T17:03:37.171Z,94.65
2018-11-14T17:06:05.739Z,96.41
2018-11-14T17:08:34.261Z,95.04
2018-11-14T17:11:02.825Z,94.53
2018-11-14T17:13:31.416Z,91.40
2018-11-14T17:15:59.914Z,91.25
2018-11-14T17:18:28.643Z,93.09
2018-11-14T17:20:57.136Z,96.69
2018-11-14T17:23:25.633Z,96.48
2018-11-14T17:25:54.150Z,95.58
2018-11-14T17:28:22.675Z,94.22
2018-11-14T17:30:51.185Z,92.14
2018-11-14T17:33:19.951Z,91.62
2018-11-14T17:35:48.490Z,92.05
2018-11-14T17:38:16.913Z,92.89
2018-11-14T17:40:45.406Z,91.20
2018-11-14T17:43:13.853Z,95.54
2018-11-14T17:45:42.484Z,94.82
2018-11-14T17:48:11.101Z,93.45
2018-11-14T17:50:39.785Z,94.84
2018-11-14T17:53:08.312Z,94.12
2018-11-14T17:55:37.078Z,98.16
2018-11-14T17:58:05.536Z,97.19
2018-11-14T18:00:34.032Z,100.00
2018-11-14T18:03:02.583Z,100.00
2018-11-14T18:05:32.028Z,98.16
2018-11-14T18:08:00.529Z,98.25
2018-11-14T18:10:30.448Z,100.00
2018-11-14T18:13:00.004Z,99.22
2018-11-14T18:15:28.561Z,99.19
2018-11-14T18:17:57.516Z,99.63
2018-11-14T18:20:27.550Z,98.90
2018-11-14T18:22:56.581Z,100.00
2018-11-14T18:25:25.411Z,99.05
2018-11-14T18:27:53.904Z,99.38
2018-11-14T18:30:28.887Z,100.00
2018-11-14T18:32:58.394Z,100.00
2018-11-14T18:35:27.716Z,100.00
2018-11-14T18:37:57.154Z,100.00
2018-11-14T18:40:27.184Z,98.86
2018-11-14T18:42:55.934Z,99.06
2018-11-14T18:45:27.776Z,100.00
2018-11-14T18:47:57.253Z,100.00
2018-11-14T18:50:26.116Z,100.00
2018-11-14T18:52:54.732Z,100.00
2018-11-14T18:55:24.911Z,100.00
2018-11-14T18:57:53.730Z,100.00
2018-11-14T19:00:26.619Z,100.00
2018-11-14T19:02:55.141Z,100.00
2018-11-14T19:05:23.610Z,100.00
2018-11-14T19:07:52.136Z,100.00
2018-11-14T19:10:22.409Z,100.00
2018-11-14T19:13:21.569Z,100.00
2018-11-14T19:15:50.084Z,100.00
2018-11-14T19:18:18.581Z,100.00
2018-11-14T19:20:47.056Z,99.56
2018-11-14T19:23:15.693Z,98.81
2018-11-14T19:25:44.156Z,99.68
2018-11-14T19:28:12.691Z,100.00
2018-11-14T19:30:41.277Z,100.00
2018-11-14T19:33:09.807Z,100.00
2018-11-14T19:35:38.355Z,100.00
2018-11-14T19:38:06.978Z,97.86
2018-11-14T19:40:36.996Z,97.96
2018-11-14T19:43:07.547Z,95.94
2018-11-14T19:45:37.434Z,95.63
2018-11-14T19:48:06.461Z,97.64
2018-11-14T19:50:35.181Z,97.37
2018-11-14T19:53:04.387Z,94.85
2018-11-14T19:55:33.736Z,95.77
2018-11-14T19:58:03.649Z,93.63
2018-11-14T20:00:33.443Z,95.20
2018-11-14T20:03:01.964Z,94.48
2018-11-14T20:05:30.465Z,95.60
2018-11-14T20:07:58.998Z,93.65
2018-11-14T20:10:30.194Z,95.10
2018-11-14T20:12:58.630Z,93.71
2018-11-14T20:15:32.746Z,93.02
2018-11-14T20:18:01.283Z,94.04
2018-11-14T20:20:31.345Z,95.80
2018-11-14T20:22:59.862Z,95.58
2018-11-14T20:25:28.400Z,94.66
2018-11-14T20:27:57.129Z,95.79
2018-11-14T20:30:27.129Z,95.06
2018-11-14T20:32:57.034Z,98.91
2018-11-14T20:35:26.547Z,95.19
2018-11-14T20:37:55.115Z,93.99
2018-11-14T20:40:24.141Z,94.42
2018-11-14T20:42:53.423Z,94.76
2018-11-14T20:45:26.331Z,98.21
2018-11-14T20:47:54.903Z,97.28
2018-11-14T20:50:24.538Z,95.37
2018-11-14T20:52:55.095Z,96.97
2018-11-14T20:55:23.611Z,94.90
2018-11-14T20:57:52.138Z,98.09
2018-11-14T21:00:22.867Z,98.47
2018-11-14T21:02:51.815Z,96.38
2018-11-14T21:05:20.633Z,98.90
2018-11-14T21:07:49.147Z,96.36
2018-11-14T21:10:19.213Z,95.57
2018-11-14T21:12:48.772Z,96.25
2018-11-14T21:15:20.415Z,96.92
2018-11-14T21:17:49.947Z,95.02
2018-11-14T21:20:18.482Z,93.68
2018-11-14T21:22:47.141Z,95.30
2018-11-14T21:25:16.922Z,93.34
2018-11-14T21:27:46.547Z,94.45
2018-11-14T21:30:16.784Z,93.56
2018-11-14T21:32:45.625Z,94.12
2018-11-14T21:35:18.576Z,97.24
2018-11-14T21:37:48.671Z,95.81
2018-11-14T21:40:17.199Z,96.15
2018-11-14T21:42:45.700Z,94.89
2018-11-14T21:45:16.816Z,95.84
2018-11-14T21:47:50.346Z,95.47
2018-11-14T21:50:20.092Z,94.85
2018-11-14T21:52:49.091Z,93.39
2018-11-14T21:55:18.395Z,92.65
2018-11-14T21:57:46.888Z,93.50
2018-11-14T22:00:19.792Z,95.21
2018-11-14T22:02:49.683Z,96.46
2018-11-14T22:05:18.299Z,96.20
2018-11-14T22:07:46.978Z,93.50
2018-11-14T22:10:17.999Z,95.84
2018-11-14T22:12:46.983Z,96.00
2018-11-14T22:15:16.512Z,95.92
2018-11-14T22:17:44.972Z,95.28
2018-11-14T22:20:14.646Z,96.34
2018-11-14T22:22:44.728Z,100.00
2018-11-14T22:25:14.570Z,96.54
2018-11-14T22:27:43.114Z,96.75
2018-11-14T22:30:17.561Z,95.95
2018-11-14T22:32:46.323Z,99.57
2018-11-14T22:35:16.184Z,98.38
2018-11-14T22:37:44.675Z,93.56
2018-11-14T22:40:15.012Z,93.96
2018-11-14T22:42:44.283Z,95.28
2018-11-14T22:45:15.243Z,95.89
2018-11-14T22:47:44.279Z,96.30
2018-11-14T22:50:14.374Z,98.18
2018-11-14T22:52:43.772Z,96.62
2018-11-14T22:55:13.355Z,95.25
2018-11-14T22:57:42.980Z,94.34
2018-11-14T23:00:21.141Z,94.77
2018-11-14T23:02:51.408Z,95.30
2018-11-14T23:05:20.370Z,91.32
2018-11-14T23:07:50.170Z,92.59
2018-11-14T23:10:20.000Z,93.48
2018-11-14T23:12:49.046Z,93.57
2018-11-14T23:15:18.132Z,91.93
2018-11-14T23:17:46.890Z,90.64
2018-11-14T23:20:16.487Z,93.48
2018-11-14T23:22:45.819Z,90.93
2018-11-14T23:25:14.844Z,91.20
2018-11-14T23:27:44.616Z,89.59
2018-11-14T23:30:14.362Z,89.75
2018-11-14T23:32:43.959Z,90.03
2018-11-14T23:35:16.656Z,88.77
2018-11-14T23:37:47.275Z,87.94
2018-11-14T23:40:15.765Z,88.55
2018-11-14T23:42:44.240Z,88.81
2018-11-14T23:45:14.171Z,92.02
2018-11-14T23:47:43.683Z,94.02
2018-11-14T23:50:16.257Z,91.55
2018-11-14T23:52:46.076Z,96.76
2018-11-14T23:55:15.365Z,99.40
2018-11-14T23:57:43.966Z,98.48
